Disclaimer

Please do not use the information listed here in-flight or in-navigation, as they are not provided to us by the airports but are provided by volunteers, so they might be outdated.

Search


Regions


Airport information page

Radio informations:
BADEN TWR - 125.875 MHz
LANGEN INFO - 128.95 MHz
BADEN GND - 121.825 MHz
REIMS INFO - 124.1 MHz

Airport informations:
Latitude: 48° 46' 45.67" N
Longitude: 008° 04' 49.80" E
Elevation: 408 feet - 124 meters
Operating hours: Remarks
Operating agency: Civil government, landing fees and diplomatic clearance may be required
Timezone: UTC+1(+2DT) - Last Sunday in March to last Sunday in October
Fuel: Jet A1+, Jet A1 with icing inhibitor.

100/130 MIL Spec, low lead, aviation gasoline (BLUE)

Runway information:
03/21 - 9787 x 148 feet< - >2983 x 45 meters

Recent METARs:
EDSB 210250Z AUTO 16003KT 090V200 7000 NCD M04/M04 Q1010
EDSB 210320Z AUTO 00000KT 4900 FEW004/// M03/M03 Q1011
EDSB 210350Z 00000KT CAVOK M04/M04 Q1011

Airport on the map: